Dorking, United Kingdom
Current Conditions -  °F | °C
As of 4:20 AM on Sunday 26 Oct 2014 (Local Time) from EGKK Reporting Station
Broken Clouds Broken Clouds  
Wind Chill: 55°   Ceiling: 3000
Heat Index: 55°   Visibility: 6mi
Dew Point: 46°   Wind: 5mph
Humidity: 72%   Direction: 220°SW
Pressure: 30.18"   Gusts: NA
Location:  51.23°N, 0.33°W
Report Text: EGKK 260320Z 22004KT 190V250 9999 BKN030 13/08 Q1022
Loading
Personal Weather Stations






























Interactive Weather Map
Tropical Storm Tracking
New forecast layout! Learn more

10-Day Weather Forecast

Advertisements
Track Severe Weather on mobile